sensor_id;sensor_type;location;lat;lon;timestamp;temperature;humidity
67354;SHT30;54238;52.278;21.056;2023-07-13T00:01:21;21.70;69.96
67354;SHT30;54238;52.278;21.056;2023-07-13T00:03:50;21.67;70.09
67354;SHT30;54238;52.278;21.056;2023-07-13T00:06:20;21.65;70.15
67354;SHT30;54238;52.278;21.056;2023-07-13T00:08:49;21.62;70.28
67354;SHT30;54238;52.278;21.056;2023-07-13T00:11:16;21.59;70.36
67354;SHT30;54238;52.278;21.056;2023-07-13T00:13:46;21.59;70.53
67354;SHT30;54238;52.278;21.056;2023-07-13T00:16:16;21.57;70.62
67354;SHT30;54238;52.278;21.056;2023-07-13T00:18:48;21.56;70.72
67354;SHT30;54238;52.278;21.056;2023-07-13T00:21:17;21.59;70.69
67354;SHT30;54238;52.278;21.056;2023-07-13T00:23:47;21.61;70.61
67354;SHT30;54238;52.278;21.056;2023-07-13T00:26:19;21.61;70.76
67354;SHT30;54238;52.278;21.056;2023-07-13T00:28:50;21.63;70.70
67354;SHT30;54238;52.278;21.056;2023-07-13T00:31:22;21.66;70.77
67354;SHT30;54238;52.278;21.056;2023-07-13T00:33:52;21.67;70.74
67354;SHT30;54238;52.278;21.056;2023-07-13T00:36:21;21.69;70.67
67354;SHT30;54238;52.278;21.056;2023-07-13T00:38:48;21.69;70.66
67354;SHT30;54238;52.278;21.056;2023-07-13T00:41:18;21.69;70.71
67354;SHT30;54238;52.278;21.056;2023-07-13T00:43:49;21.68;70.66
67354;SHT30;54238;52.278;21.056;2023-07-13T00:49:00;21.66;70.66
67354;SHT30;54238;52.278;21.056;2023-07-13T00:51:41;21.64;70.75
67354;SHT30;54238;52.278;21.056;2023-07-13T00:54:13;21.58;70.83
67354;SHT30;54238;52.278;21.056;2023-07-13T00:56:50;21.52;71.05
67354;SHT30;54238;52.278;21.056;2023-07-13T00:59:23;21.48;71.12
67354;SHT30;54238;52.278;21.056;2023-07-13T01:01:54;21.43;71.27
67354;SHT30;54238;52.278;21.056;2023-07-13T01:04:23;21.39;71.42
67354;SHT30;54238;52.278;21.056;2023-07-13T01:06:58;21.35;71.49
67354;SHT30;54238;52.278;21.056;2023-07-13T01:09:27;21.32;71.62
67354;SHT30;54238;52.278;21.056;2023-07-13T01:11:56;21.31;71.90
67354;SHT30;54238;52.278;21.056;2023-07-13T01:14:26;21.26;71.94
67354;SHT30;54238;52.278;21.056;2023-07-13T01:16:58;21.24;72.05
67354;SHT30;54238;52.278;21.056;2023-07-13T01:19:35;21.23;72.04
67354;SHT30;54238;52.278;21.056;2023-07-13T01:22:10;21.24;72.16
67354;SHT30;54238;52.278;21.056;2023-07-13T01:24:44;21.22;72.23
67354;SHT30;54238;52.278;21.056;2023-07-13T01:27:20;21.23;72.31
67354;SHT30;54238;52.278;21.056;2023-07-13T01:29:51;21.25;72.31
67354;SHT30;54238;52.278;21.056;2023-07-13T01:32:29;21.27;72.28
67354;SHT30;54238;52.278;21.056;2023-07-13T01:35:00;21.29;72.24
67354;SHT30;54238;52.278;21.056;2023-07-13T01:37:30;21.30;72.25
67354;SHT30;54238;52.278;21.056;2023-07-13T01:40:03;21.29;72.30
67354;SHT30;54238;52.278;21.056;2023-07-13T01:42:35;21.28;72.39
67354;SHT30;54238;52.278;21.056;2023-07-13T01:45:02;21.26;72.42
67354;SHT30;54238;52.278;21.056;2023-07-13T01:47:30;21.25;72.54
67354;SHT30;54238;52.278;21.056;2023-07-13T01:49:57;21.22;72.54
67354;SHT30;54238;52.278;21.056;2023-07-13T01:52:24;21.20;72.69
67354;SHT30;54238;52.278;21.056;2023-07-13T01:54:54;21.18;72.73
67354;SHT30;54238;52.278;21.056;2023-07-13T01:57:24;21.20;72.76
67354;SHT30;54238;52.278;21.056;2023-07-13T01:59:53;21.22;72.76
67354;SHT30;54238;52.278;21.056;2023-07-13T02:02:25;21.23;72.70
67354;SHT30;54238;52.278;21.056;2023-07-13T02:04:53;21.23;72.69
67354;SHT30;54238;52.278;21.056;2023-07-13T02:07:22;21.25;72.63
67354;SHT30;54238;52.278;21.056;2023-07-13T02:09:52;21.26;72.63
67354;SHT30;54238;52.278;21.056;2023-07-13T02:12:19;21.26;72.59
67354;SHT30;54238;52.278;21.056;2023-07-13T02:14:46;21.27;72.56
67354;SHT30;54238;52.278;21.056;2023-07-13T02:17:16;21.27;72.62
67354;SHT30;54238;52.278;21.056;2023-07-13T02:19:43;21.25;72.66
67354;SHT30;54238;52.278;21.056;2023-07-13T02:22:14;21.26;72.70
67354;SHT30;54238;52.278;21.056;2023-07-13T02:24:44;21.26;72.69
67354;SHT30;54238;52.278;21.056;2023-07-13T02:27:16;21.26;72.69
67354;SHT30;54238;52.278;21.056;2023-07-13T02:29:45;21.25;72.72
67354;SHT30;54238;52.278;21.056;2023-07-13T02:32:18;21.26;72.66
67354;SHT30;54238;52.278;21.056;2023-07-13T02:34:49;21.24;72.73
67354;SHT30;54238;52.278;21.056;2023-07-13T02:37:22;21.24;72.78
67354;SHT30;54238;52.278;21.056;2023-07-13T02:39:51;21.21;72.79
67354;SHT30;54238;52.278;21.056;2023-07-13T02:42:23;21.19;72.80
67354;SHT30;54238;52.278;21.056;2023-07-13T02:44:54;21.17;72.91
67354;SHT30;54238;52.278;21.056;2023-07-13T02:47:21;21.18;72.92
67354;SHT30;54238;52.278;21.056;2023-07-13T02:49:48;21.19;72.87
67354;SHT30;54238;52.278;21.056;2023-07-13T02:52:18;21.19;72.86
67354;SHT30;54238;52.278;21.056;2023-07-13T02:54:48;21.20;73.02
67354;SHT30;54238;52.278;21.056;2023-07-13T02:57:16;21.20;72.91
67354;SHT30;54238;52.278;21.056;2023-07-13T02:59:43;21.23;72.90
67354;SHT30;54238;52.278;21.056;2023-07-13T03:02:12;21.21;72.91
67354;SHT30;54238;52.278;21.056;2023-07-13T03:04:39;21.18;72.95
67354;SHT30;54238;52.278;21.056;2023-07-13T03:07:09;21.16;73.05
67354;SHT30;54238;52.278;21.056;2023-07-13T03:09:36;21.14;73.10
67354;SHT30;54238;52.278;21.056;2023-07-13T03:12:04;21.14;73.17
67354;SHT30;54238;52.278;21.056;2023-07-13T03:14:34;21.15;73.14
67354;SHT30;54238;52.278;21.056;2023-07-13T03:17:01;21.16;73.17
67354;SHT30;54238;52.278;21.056;2023-07-13T03:19:28;21.18;73.12
67354;SHT30;54238;52.278;21.056;2023-07-13T03:21:57;21.17;73.16
67354;SHT30;54238;52.278;21.056;2023-07-13T03:24:26;21.16;73.13
67354;SHT30;54238;52.278;21.056;2023-07-13T03:26:55;21.17;73.20
67354;SHT30;54238;52.278;21.056;2023-07-13T03:29:28;21.20;73.09
67354;SHT30;54238;52.278;21.056;2023-07-13T03:31:55;21.19;73.04
67354;SHT30;54238;52.278;21.056;2023-07-13T03:34:24;21.17;73.00
67354;SHT30;54238;52.278;21.056;2023-07-13T03:36:56;21.15;73.07
67354;SHT30;54238;52.278;21.056;2023-07-13T03:39:25;21.13;73.10
67354;SHT30;54238;52.278;21.056;2023-07-13T03:41:57;21.12;73.18
67354;SHT30;54238;52.278;21.056;2023-07-13T03:44:27;21.12;73.24
67354;SHT30;54238;52.278;21.056;2023-07-13T03:47:00;21.13;73.25
67354;SHT30;54238;52.278;21.056;2023-07-13T03:49:27;21.13;73.31
67354;SHT30;54238;52.278;21.056;2023-07-13T03:51:55;21.12;73.35
67354;SHT30;54238;52.278;21.056;2023-07-13T03:54:27;21.14;73.39
67354;SHT30;54238;52.278;21.056;2023-07-13T03:56:58;21.17;73.49
67354;SHT30;54238;52.278;21.056;2023-07-13T03:59:29;21.24;73.56
67354;SHT30;54238;52.278;21.056;2023-07-13T04:01:56;21.31;73.48
67354;SHT30;54238;52.278;21.056;2023-07-13T04:04:25;21.35;73.40
67354;SHT30;54238;52.278;21.056;2023-07-13T04:06:57;21.39;73.31
67354;SHT30;54238;52.278;21.056;2023-07-13T04:09:26;21.43;73.26
67354;SHT30;54238;52.278;21.056;2023-07-13T04:11:53;21.52;73.17
67354;SHT30;54238;52.278;21.056;2023-07-13T04:14:21;21.57;72.99
67354;SHT30;54238;52.278;21.056;2023-07-13T04:16:54;21.60;72.92
67354;SHT30;54238;52.278;21.056;2023-07-13T04:19:24;21.67;72.96
67354;SHT30;54238;52.278;21.056;2023-07-13T04:21:51;21.82;72.74
67354;SHT30;54238;52.278;21.056;2023-07-13T04:24:23;21.95;72.50
67354;SHT30;54238;52.278;21.056;2023-07-13T04:26:53;22.08;72.27
67354;SHT30;54238;52.278;21.056;2023-07-13T04:29:26;22.22;72.10
67354;SHT30;54238;52.278;21.056;2023-07-13T04:31:55;22.34;71.93
67354;SHT30;54238;52.278;21.056;2023-07-13T04:34:24;22.45;71.80
67354;SHT30;54238;52.278;21.056;2023-07-13T04:36:55;22.59;71.55
67354;SHT30;54238;52.278;21.056;2023-07-13T04:39:22;22.69;71.39
67354;SHT30;54238;52.278;21.056;2023-07-13T04:41:54;22.79;71.15
67354;SHT30;54238;52.278;21.056;2023-07-13T04:44:23;22.89;70.94
67354;SHT30;54238;52.278;21.056;2023-07-13T04:46:51;22.95;70.74
67354;SHT30;54238;52.278;21.056;2023-07-13T04:49:18;22.98;70.69
67354;SHT30;54238;52.278;21.056;2023-07-13T04:51:45;23.00;70.62
67354;SHT30;54238;52.278;21.056;2023-07-13T04:54:15;23.04;70.60
67354;SHT30;54238;52.278;21.056;2023-07-13T04:56:45;23.07;70.59
67354;SHT30;54238;52.278;21.056;2023-07-13T04:59:12;23.10;70.49
67354;SHT30;54238;52.278;21.056;2023-07-13T05:01:43;23.14;70.65
67354;SHT30;54238;52.278;21.056;2023-07-13T05:04:10;23.22;70.54
67354;SHT30;54238;52.278;21.056;2023-07-13T05:06:38;23.25;70.36
67354;SHT30;54238;52.278;21.056;2023-07-13T05:09:09;23.30;70.46
67354;SHT30;54238;52.278;21.056;2023-07-13T05:11:39;23.36;70.26
67354;SHT30;54238;52.278;21.056;2023-07-13T05:14:06;23.43;70.20
67354;SHT30;54238;52.278;21.056;2023-07-13T05:16:38;23.54;70.08
67354;SHT30;54238;52.278;21.056;2023-07-13T05:19:08;23.63;69.91
67354;SHT30;54238;52.278;21.056;2023-07-13T05:21:38;23.72;69.64
67354;SHT30;54238;52.278;21.056;2023-07-13T05:24:08;23.81;69.34
67354;SHT30;54238;52.278;21.056;2023-07-13T05:26:37;23.85;69.25
67354;SHT30;54238;52.278;21.056;2023-07-13T05:29:04;23.88;69.19
67354;SHT30;54238;52.278;21.056;2023-07-13T05:31:34;23.95;68.98
67354;SHT30;54238;52.278;21.056;2023-07-13T05:34:07;24.01;68.89
67354;SHT30;54238;52.278;21.056;2023-07-13T05:36:36;24.11;68.53
67354;SHT30;54238;52.278;21.056;2023-07-13T05:39:06;24.19;68.19
67354;SHT30;54238;52.278;21.056;2023-07-13T05:41:33;24.28;67.88
67354;SHT30;54238;52.278;21.056;2023-07-13T05:44:09;24.29;67.71
67354;SHT30;54238;52.278;21.056;2023-07-13T05:46:38;24.32;67.61
67354;SHT30;54238;52.278;21.056;2023-07-13T05:49:05;24.37;67.41
67354;SHT30;54238;52.278;21.056;2023-07-13T05:51:37;24.44;67.35
67354;SHT30;54238;52.278;21.056;2023-07-13T05:54:04;24.58;67.18
67354;SHT30;54238;52.278;21.056;2023-07-13T05:56:34;24.72;66.77
67354;SHT30;54238;52.278;21.056;2023-07-13T05:59:01;24.81;66.48
67354;SHT30;54238;52.278;21.056;2023-07-13T06:01:29;24.86;66.24
67354;SHT30;54238;52.278;21.056;2023-07-13T06:03:57;24.92;66.16
67354;SHT30;54238;52.278;21.056;2023-07-13T06:06:27;25.03;65.90
67354;SHT30;54238;52.278;21.056;2023-07-13T06:08:57;25.13;65.68
67354;SHT30;54238;52.278;21.056;2023-07-13T06:11:25;25.22;65.52
67354;SHT30;54238;52.278;21.056;2023-07-13T06:13:59;25.31;65.28
67354;SHT30;54238;52.278;21.056;2023-07-13T06:16:31;25.36;64.67
67354;SHT30;54238;52.278;21.056;2023-07-13T06:19:01;25.39;64.33
67354;SHT30;54238;52.278;21.056;2023-07-13T06:21:33;25.45;64.28
67354;SHT30;54238;52.278;21.056;2023-07-13T06:24:00;25.48;64.07
67354;SHT30;54238;52.278;21.056;2023-07-13T06:26:32;25.48;63.91
67354;SHT30;54238;52.278;21.056;2023-07-13T06:28:59;25.44;63.85
67354;SHT30;54238;52.278;21.056;2023-07-13T06:31:29;25.45;63.74
67354;SHT30;54238;52.278;21.056;2023-07-13T06:34:00;25.45;63.71
67354;SHT30;54238;52.278;21.056;2023-07-13T06:36:30;25.45;63.53
67354;SHT30;54238;52.278;21.056;2023-07-13T06:38:57;25.45;63.25
67354;SHT30;54238;52.278;21.056;2023-07-13T06:41:29;25.46;63.31
67354;SHT30;54238;52.278;21.056;2023-07-13T06:43:57;25.53;63.50
67354;SHT30;54238;52.278;21.056;2023-07-13T06:46:29;25.60;63.08
67354;SHT30;54238;52.278;21.056;2023-07-13T06:48:59;25.64;61.73
67354;SHT30;54238;52.278;21.056;2023-07-13T06:51:33;25.68;59.87
67354;SHT30;54238;52.278;21.056;2023-07-13T06:54:03;25.74;58.92
67354;SHT30;54238;52.278;21.056;2023-07-13T06:56:35;25.79;58.80
67354;SHT30;54238;52.278;21.056;2023-07-13T06:59:05;25.85;58.39
67354;SHT30;54238;52.278;21.056;2023-07-13T07:01:35;25.92;58.34
67354;SHT30;54238;52.278;21.056;2023-07-13T07:04:04;25.98;58.33
67354;SHT30;54238;52.278;21.056;2023-07-13T07:06:31;26.10;57.20
67354;SHT30;54238;52.278;21.056;2023-07-13T07:09:00;26.22;56.47
67354;SHT30;54238;52.278;21.056;2023-07-13T07:11:35;26.30;55.97
67354;SHT30;54238;52.278;21.056;2023-07-13T07:14:07;26.40;54.50
67354;SHT30;54238;52.278;21.056;2023-07-13T07:16:36;26.52;53.55
67354;SHT30;54238;52.278;21.056;2023-07-13T07:19:03;26.59;53.17
67354;SHT30;54238;52.278;21.056;2023-07-13T07:21:33;26.68;53.27
67354;SHT30;54238;52.278;21.056;2023-07-13T07:24:02;26.79;52.60
67354;SHT30;54238;52.278;21.056;2023-07-13T07:26:31;26.88;52.15
67354;SHT30;54238;52.278;21.056;2023-07-13T07:28:58;26.95;51.23
67354;SHT30;54238;52.278;21.056;2023-07-13T07:31:28;27.03;51.16
67354;SHT30;54238;52.278;21.056;2023-07-13T07:33:55;27.10;51.51
67354;SHT30;54238;52.278;21.056;2023-07-13T07:36:25;27.18;50.86
67354;SHT30;54238;52.278;21.056;2023-07-13T07:38:55;27.23;50.11
67354;SHT30;54238;52.278;21.056;2023-07-13T07:41:22;27.29;50.14
67354;SHT30;54238;52.278;21.056;2023-07-13T07:43:49;27.39;50.08
67354;SHT30;54238;52.278;21.056;2023-07-13T07:46:21;27.49;49.29
67354;SHT30;54238;52.278;21.056;2023-07-13T07:48:51;27.57;49.34
67354;SHT30;54238;52.278;21.056;2023-07-13T07:51:20;27.65;47.32
67354;SHT30;54238;52.278;21.056;2023-07-13T07:53:50;27.67;45.56
67354;SHT30;54238;52.278;21.056;2023-07-13T07:56:17;27.70;45.79
67354;SHT30;54238;52.278;21.056;2023-07-13T07:58:49;27.79;46.12
67354;SHT30;54238;52.278;21.056;2023-07-13T08:01:15;27.89;46.11
67354;SHT30;54238;52.278;21.056;2023-07-13T08:03:45;27.95;46.73
67354;SHT30;54238;52.278;21.056;2023-07-13T08:06:19;27.94;47.29
67354;SHT30;54238;52.278;21.056;2023-07-13T08:08:47;27.90;46.74
67354;SHT30;54238;52.278;21.056;2023-07-13T08:11:17;27.92;46.59
67354;SHT30;54238;52.278;21.056;2023-07-13T08:13:44;28.02;44.94
67354;SHT30;54238;52.278;21.056;2023-07-13T08:16:11;28.12;44.53
67354;SHT30;54238;52.278;21.056;2023-07-13T08:18:38;28.16;44.20
67354;SHT30;54238;52.278;21.056;2023-07-13T08:21:11;28.17;44.14
67354;SHT30;54238;52.278;21.056;2023-07-13T08:23:38;28.23;44.81
67354;SHT30;54238;52.278;21.056;2023-07-13T08:26:08;28.29;45.16
67354;SHT30;54238;52.278;21.056;2023-07-13T08:28:40;28.27;45.39
67354;SHT30;54238;52.278;21.056;2023-07-13T08:31:12;28.30;45.28
67354;SHT30;54238;52.278;21.056;2023-07-13T08:33:40;28.25;44.93
67354;SHT30;54238;52.278;21.056;2023-07-13T08:36:09;28.19;45.04
67354;SHT30;54238;52.278;21.056;2023-07-13T08:38:38;28.19;44.83
67354;SHT30;54238;52.278;21.056;2023-07-13T08:41:17;28.29;45.16
67354;SHT30;54238;52.278;21.056;2023-07-13T08:43:55;28.46;45.08
67354;SHT30;54238;52.278;21.056;2023-07-13T08:49:05;28.83;43.87
67354;SHT30;54238;52.278;21.056;2023-07-13T08:57:10;29.53;43.04
67354;SHT30;54238;52.278;21.056;2023-07-13T08:59:44;29.64;42.81
67354;SHT30;54238;52.278;21.056;2023-07-13T09:05:14;30.03;42.58
67354;SHT30;54238;52.278;21.056;2023-07-13T09:16:54;30.69;41.24
67354;SHT30;54238;52.278;21.056;2023-07-13T09:19:26;30.86;40.67
67354;SHT30;54238;52.278;21.056;2023-07-13T09:21:59;30.98;40.68
67354;SHT30;54238;52.278;21.056;2023-07-13T09:24:41;31.06;41.14
67354;SHT30;54238;52.278;21.056;2023-07-13T09:27:47;30.92;40.49
67354;SHT30;54238;52.278;21.056;2023-07-13T09:30:20;30.58;40.03
67354;SHT30;54238;52.278;21.056;2023-07-13T09:32:59;30.04;40.33
67354;SHT30;54238;52.278;21.056;2023-07-13T09:35:27;29.56;40.88
67354;SHT30;54238;52.278;21.056;2023-07-13T09:38:10;29.20;41.61
67354;SHT30;54238;52.278;21.056;2023-07-13T09:44:12;28.63;42.87
67354;SHT30;54238;52.278;21.056;2023-07-13T09:46:45;28.40;43.72
67354;SHT30;54238;52.278;21.056;2023-07-13T09:49:25;28.19;43.99
67354;SHT30;54238;52.278;21.056;2023-07-13T09:51:59;27.98;44.10
67354;SHT30;54238;52.278;21.056;2023-07-13T09:54:35;27.73;44.21
67354;SHT30;54238;52.278;21.056;2023-07-13T09:57:13;27.40;44.75
67354;SHT30;54238;52.278;21.056;2023-07-13T09:59:47;27.26;45.23
67354;SHT30;54238;52.278;21.056;2023-07-13T10:02:27;27.19;45.11
67354;SHT30;54238;52.278;21.056;2023-07-13T10:05:13;27.14;45.28
67354;SHT30;54238;52.278;21.056;2023-07-13T10:07:44;27.25;45.39
67354;SHT30;54238;52.278;21.056;2023-07-13T10:10:20;27.42;45.51
67354;SHT30;54238;52.278;21.056;2023-07-13T10:12:49;27.62;45.40
67354;SHT30;54238;52.278;21.056;2023-07-13T10:15:24;27.77;45.07
67354;SHT30;54238;52.278;21.056;2023-07-13T10:17:57;27.84;45.06
67354;SHT30;54238;52.278;21.056;2023-07-13T10:20:32;27.87;44.74
67354;SHT30;54238;52.278;21.056;2023-07-13T10:23:00;27.83;44.72
67354;SHT30;54238;52.278;21.056;2023-07-13T10:25:37;27.73;44.96
67354;SHT30;54238;52.278;21.056;2023-07-13T10:31:00;27.49;45.30
67354;SHT30;54238;52.278;21.056;2023-07-13T10:33:32;27.35;45.62
67354;SHT30;54238;52.278;21.056;2023-07-13T10:36:23;27.14;45.87
67354;SHT30;54238;52.278;21.056;2023-07-13T10:39:03;26.96;46.43
67354;SHT30;54238;52.278;21.056;2023-07-13T10:41:40;26.80;46.97
67354;SHT30;54238;52.278;21.056;2023-07-13T10:44:21;26.66;47.33
67354;SHT30;54238;52.278;21.056;2023-07-13T10:46:55;26.56;47.83
67354;SHT30;54238;52.278;21.056;2023-07-13T10:49:32;26.44;48.69
67354;SHT30;54238;52.278;21.056;2023-07-13T10:58:03;25.14;55.65
67354;SHT30;54238;52.278;21.056;2023-07-13T11:03:46;24.19;58.26
67354;SHT30;54238;52.278;21.056;2023-07-13T11:06:21;23.78;59.99
67354;SHT30;54238;52.278;21.056;2023-07-13T11:12:00;23.18;62.23
67354;SHT30;54238;52.278;21.056;2023-07-13T11:15:00;23.00;63.07
67354;SHT30;54238;52.278;21.056;2023-07-13T11:22:51;22.47;64.84
67354;SHT30;54238;52.278;21.056;2023-07-13T11:25:36;22.38;65.27
67354;SHT30;54238;52.278;21.056;2023-07-13T11:33:25;22.12;66.95
67354;SHT30;54238;52.278;21.056;2023-07-13T11:41:17;22.00;67.79
67354;SHT30;54238;52.278;21.056;2023-07-13T11:43:53;22.02;68.60
67354;SHT30;54238;52.278;21.056;2023-07-13T11:46:38;22.01;69.29
67354;SHT30;54238;52.278;21.056;2023-07-13T11:49:07;22.01;69.18
67354;SHT30;54238;52.278;21.056;2023-07-13T11:51:37;22.01;69.41
67354;SHT30;54238;52.278;21.056;2023-07-13T11:54:15;21.99;69.42
67354;SHT30;54238;52.278;21.056;2023-07-13T11:57:06;21.97;69.23
67354;SHT30;54238;52.278;21.056;2023-07-13T11:59:54;21.95;69.16
67354;SHT30;54238;52.278;21.056;2023-07-13T12:02:32;21.97;69.45
67354;SHT30;54238;52.278;21.056;2023-07-13T12:05:05;21.98;68.91
67354;SHT30;54238;52.278;21.056;2023-07-13T12:07:36;21.96;68.26
67354;SHT30;54238;52.278;21.056;2023-07-13T12:12:40;21.98;68.20
67354;SHT30;54238;52.278;21.056;2023-07-13T12:15:22;22.02;68.01
67354;SHT30;54238;52.278;21.056;2023-07-13T12:18:19;22.03;67.93
67354;SHT30;54238;52.278;21.056;2023-07-13T12:20:55;22.03;67.92
67354;SHT30;54238;52.278;21.056;2023-07-13T12:23:25;22.05;68.02
67354;SHT30;54238;52.278;21.056;2023-07-13T12:26:03;22.10;68.62
67354;SHT30;54238;52.278;21.056;2023-07-13T12:28:48;22.14;68.63
67354;SHT30;54238;52.278;21.056;2023-07-13T12:34:06;22.23;67.92
67354;SHT30;54238;52.278;21.056;2023-07-13T12:36:46;22.26;67.53
67354;SHT30;54238;52.278;21.056;2023-07-13T12:39:23;22.27;67.19
67354;SHT30;54238;52.278;21.056;2023-07-13T12:41:53;22.29;67.37
67354;SHT30;54238;52.278;21.056;2023-07-13T12:47:50;22.35;67.46
67354;SHT30;54238;52.278;21.056;2023-07-13T12:50:39;22.40;68.21
67354;SHT30;54238;52.278;21.056;2023-07-13T12:53:22;22.37;68.59
67354;SHT30;54238;52.278;21.056;2023-07-13T12:55:58;22.34;68.31
67354;SHT30;54238;52.278;21.056;2023-07-13T12:58:36;22.31;69.04
67354;SHT30;54238;52.278;21.056;2023-07-13T13:01:15;22.27;69.70
67354;SHT30;54238;52.278;21.056;2023-07-13T13:03:48;22.23;70.22
67354;SHT30;54238;52.278;21.056;2023-07-13T13:06:25;22.20;69.34
67354;SHT30;54238;52.278;21.056;2023-07-13T13:08:58;22.21;70.15
67354;SHT30;54238;52.278;21.056;2023-07-13T13:11:28;22.25;69.79
67354;SHT30;54238;52.278;21.056;2023-07-13T13:13:57;22.31;69.07
67354;SHT30;54238;52.278;21.056;2023-07-13T13:19:16;22.42;67.86
67354;SHT30;54238;52.278;21.056;2023-07-13T13:21:48;22.47;68.15
67354;SHT30;54238;52.278;21.056;2023-07-13T13:24:23;22.44;68.92
67354;SHT30;54238;52.278;21.056;2023-07-13T13:26:54;22.44;69.20
67354;SHT30;54238;52.278;21.056;2023-07-13T13:29:23;22.46;68.95
67354;SHT30;54238;52.278;21.056;2023-07-13T13:31:54;22.48;68.63
67354;SHT30;54238;52.278;21.056;2023-07-13T13:34:24;22.52;68.94
67354;SHT30;54238;52.278;21.056;2023-07-13T13:36:54;22.55;68.92
67354;SHT30;54238;52.278;21.056;2023-07-13T13:39:23;22.60;68.85
67354;SHT30;54238;52.278;21.056;2023-07-13T13:42:08;22.70;68.70
67354;SHT30;54238;52.278;21.056;2023-07-13T13:44:36;22.78;68.69
67354;SHT30;54238;52.278;21.056;2023-07-13T13:47:04;22.85;68.42
67354;SHT30;54238;52.278;21.056;2023-07-13T13:49:50;22.87;68.43
67354;SHT30;54238;52.278;21.056;2023-07-13T13:52:20;22.89;68.75
67354;SHT30;54238;52.278;21.056;2023-07-13T13:54:47;22.94;69.09
67354;SHT30;54238;52.278;21.056;2023-07-13T13:57:14;22.97;69.44
67354;SHT30;54238;52.278;21.056;2023-07-13T13:59:46;23.01;69.55
67354;SHT30;54238;52.278;21.056;2023-07-13T14:02:28;23.06;69.57
67354;SHT30;54238;52.278;21.056;2023-07-13T14:04:59;23.09;69.74
67354;SHT30;54238;52.278;21.056;2023-07-13T14:07:30;23.12;69.92
67354;SHT30;54238;52.278;21.056;2023-07-13T14:10:08;23.14;70.17
67354;SHT30;54238;52.278;21.056;2023-07-13T14:12:45;23.20;70.33
67354;SHT30;54238;52.278;21.056;2023-07-13T14:15:22;23.24;70.32
67354;SHT30;54238;52.278;21.056;2023-07-13T14:17:54;23.28;70.56
67354;SHT30;54238;52.278;21.056;2023-07-13T14:20:26;23.26;70.51
67354;SHT30;54238;52.278;21.056;2023-07-13T14:22:54;23.27;70.67
67354;SHT30;54238;52.278;21.056;2023-07-13T14:25:21;23.26;70.64
67354;SHT30;54238;52.278;21.056;2023-07-13T14:27:57;23.25;70.59
67354;SHT30;54238;52.278;21.056;2023-07-13T14:30:38;23.24;70.36
67354;SHT30;54238;52.278;21.056;2023-07-13T14:33:08;23.21;70.20
67354;SHT30;54238;52.278;21.056;2023-07-13T14:35:38;23.19;70.20
67354;SHT30;54238;52.278;21.056;2023-07-13T14:38:09;23.16;70.15
67354;SHT30;54238;52.278;21.056;2023-07-13T14:40:42;23.14;70.22
67354;SHT30;54238;52.278;21.056;2023-07-13T14:43:13;23.13;70.53
67354;SHT30;54238;52.278;21.056;2023-07-13T14:45:45;23.11;70.80
67354;SHT30;54238;52.278;21.056;2023-07-13T14:48:20;23.09;71.01
67354;SHT30;54238;52.278;21.056;2023-07-13T14:50:53;23.08;71.17
67354;SHT30;54238;52.278;21.056;2023-07-13T14:53:27;23.08;70.97
67354;SHT30;54238;52.278;21.056;2023-07-13T14:55:54;23.05;70.99
67354;SHT30;54238;52.278;21.056;2023-07-13T14:58:29;23.02;70.84
67354;SHT30;54238;52.278;21.056;2023-07-13T15:00:56;22.99;70.77
67354;SHT30;54238;52.278;21.056;2023-07-13T15:03:25;23.00;70.62
67354;SHT30;54238;52.278;21.056;2023-07-13T15:05:55;22.98;70.76
67354;SHT30;54238;52.278;21.056;2023-07-13T15:08:22;22.92;70.68
67354;SHT30;54238;52.278;21.056;2023-07-13T15:10:50;22.86;70.61
67354;SHT30;54238;52.278;21.056;2023-07-13T15:13:24;22.82;70.83
67354;SHT30;54238;52.278;21.056;2023-07-13T15:15:53;22.78;71.08
67354;SHT30;54238;52.278;21.056;2023-07-13T15:18:23;22.73;71.57
67354;SHT30;54238;52.278;21.056;2023-07-13T15:20:52;22.71;71.83
67354;SHT30;54238;52.278;21.056;2023-07-13T15:23:19;22.69;72.15
67354;SHT30;54238;52.278;21.056;2023-07-13T15:25:46;22.69;72.14
67354;SHT30;54238;52.278;21.056;2023-07-13T15:28:16;22.69;72.39
67354;SHT30;54238;52.278;21.056;2023-07-13T15:33:21;22.75;71.97
67354;SHT30;54238;52.278;21.056;2023-07-13T15:35:58;22.78;71.95
67354;SHT30;54238;52.278;21.056;2023-07-13T15:38:29;22.74;70.69
67354;SHT30;54238;52.278;21.056;2023-07-13T15:41:00;22.65;69.50
67354;SHT30;54238;52.278;21.056;2023-07-13T15:43:28;22.63;69.65
67354;SHT30;54238;52.278;21.056;2023-07-13T15:46:04;22.61;69.16
67354;SHT30;54238;52.278;21.056;2023-07-13T15:48:37;22.59;68.19
67354;SHT30;54238;52.278;21.056;2023-07-13T15:51:05;22.57;67.83
67354;SHT30;54238;52.278;21.056;2023-07-13T15:53:44;22.53;67.63
67354;SHT30;54238;52.278;21.056;2023-07-13T15:56:18;22.52;67.70
67354;SHT30;54238;52.278;21.056;2023-07-13T15:58:49;22.51;67.96
67354;SHT30;54238;52.278;21.056;2023-07-13T16:01:20;22.51;67.96
67354;SHT30;54238;52.278;21.056;2023-07-13T16:03:53;22.51;68.05
67354;SHT30;54238;52.278;21.056;2023-07-13T16:06:22;22.52;68.22
67354;SHT30;54238;52.278;21.056;2023-07-13T16:08:54;22.55;68.29
67354;SHT30;54238;52.278;21.056;2023-07-13T16:11:26;22.56;68.40
67354;SHT30;54238;52.278;21.056;2023-07-13T16:14:03;22.57;68.49
67354;SHT30;54238;52.278;21.056;2023-07-13T16:16:35;22.58;68.58
67354;SHT30;54238;52.278;21.056;2023-07-13T16:19:05;22.61;68.59
67354;SHT30;54238;52.278;21.056;2023-07-13T16:21:40;22.63;68.73
67354;SHT30;54238;52.278;21.056;2023-07-13T16:24:20;22.63;68.79
67354;SHT30;54238;52.278;21.056;2023-07-13T16:26:54;22.65;68.51
67354;SHT30;54238;52.278;21.056;2023-07-13T16:29:25;22.65;68.21
67354;SHT30;54238;52.278;21.056;2023-07-13T16:31:59;22.67;67.78
67354;SHT30;54238;52.278;21.056;2023-07-13T16:34:37;22.67;67.54
67354;SHT30;54238;52.278;21.056;2023-07-13T16:39:57;22.70;67.50
67354;SHT30;54238;52.278;21.056;2023-07-13T16:42:34;22.74;67.40
67354;SHT30;54238;52.278;21.056;2023-07-13T16:45:05;22.74;67.42
67354;SHT30;54238;52.278;21.056;2023-07-13T16:47:38;22.75;67.46
67354;SHT30;54238;52.278;21.056;2023-07-13T16:50:15;22.75;67.31
67354;SHT30;54238;52.278;21.056;2023-07-13T16:52:46;22.75;67.46
67354;SHT30;54238;52.278;21.056;2023-07-13T16:55:20;22.75;67.48
67354;SHT30;54238;52.278;21.056;2023-07-13T16:57:57;22.73;67.33